sensor_id;sensor_type;location;lat;lon;timestamp;pressure;altitude;pressure_sealevel;temperature;humidity
19108;BME280;9686;48.832;9.126;2022-09-20T00:01:51;98649.59;;;11.32;100.00
19108;BME280;9686;48.832;9.126;2022-09-20T00:04:17;98642.63;;;11.30;100.00
19108;BME280;9686;48.832;9.126;2022-09-20T00:06:42;98646.09;;;11.33;100.00
19108;BME280;9686;48.832;9.126;2022-09-20T00:09:07;98645.22;;;11.37;100.00
19108;BME280;9686;48.832;9.126;2022-09-20T00:11:36;98643.50;;;11.27;100.00
19108;BME280;9686;48.832;9.126;2022-09-20T00:14:04;98646.97;;;11.29;100.00
19108;BME280;9686;48.832;9.126;2022-09-20T00:16:36;98642.66;;;11.22;100.00
19108;BME280;9686;48.832;9.126;2022-09-20T00:19:21;98640.03;;;11.18;100.00
19108;BME280;9686;48.832;9.126;2022-09-20T00:21:49;98640.03;;;11.15;100.00
19108;BME280;9686;48.832;9.126;2022-09-20T00:42:26;98644.38;;;11.17;100.00
19108;BME280;9686;48.832;9.126;2022-09-20T01:58:48;98631.34;;;11.22;100.00
19108;BME280;9686;48.832;9.126;2022-09-20T03:28:35;98642.66;;;11.13;100.00
19108;BME280;9686;48.832;9.126;2022-09-20T03:31:27;98644.41;;;11.09;100.00
19108;BME280;9686;48.832;9.126;2022-09-20T03:36:53;98645.25;;;11.25;100.00
19108;BME280;9686;48.832;9.126;2022-09-20T03:42:28;98644.38;;;11.17;100.00
19108;BME280;9686;48.832;9.126;2022-09-20T03:45:18;98640.03;;;11.21;100.00
19108;BME280;9686;48.832;9.126;2022-09-20T03:48:04;98648.75;;;11.20;100.00
19108;BME280;9686;48.832;9.126;2022-09-20T04:22:02;98660.94;;;11.21;100.00
19108;BME280;9686;48.832;9.126;2022-09-20T04:24:39;98666.09;;;11.33;100.00
19108;BME280;9686;48.832;9.126;2022-09-20T04:27:32;98669.63;;;11.23;100.00
19108;BME280;9686;48.832;9.126;2022-09-20T04:30:13;98658.28;;;11.33;100.00
19108;BME280;9686;48.832;9.126;2022-09-20T04:46:15;98676.56;;;11.22;100.00
19108;BME280;9686;48.832;9.126;2022-09-20T05:06:14;98703.53;;;11.29;100.00
19108;BME280;9686;48.832;9.126;2022-09-20T05:14:35;98702.63;;;11.43;100.00
19108;BME280;9686;48.832;9.126;2022-09-20T05:17:29;98707.00;;;11.38;100.00
19108;BME280;9686;48.832;9.126;2022-09-20T05:20:40;98698.31;;;11.23;100.00
19108;BME280;9686;48.832;9.126;2022-09-20T05:32:02;98707.91;;;10.96;100.00
19108;BME280;9686;48.832;9.126;2022-09-20T05:34:41;98704.41;;;11.05;100.00
19108;BME280;9686;48.832;9.126;2022-09-20T05:42:58;98724.41;;;10.97;100.00
19108;BME280;9686;48.832;9.126;2022-09-20T05:51:05;98725.25;;;11.17;100.00
19108;BME280;9686;48.832;9.126;2022-09-20T06:01:54;98729.59;;;11.42;100.00
19108;BME280;9686;48.832;9.126;2022-09-20T06:04:32;98733.09;;;11.55;100.00
19108;BME280;9686;48.832;9.126;2022-09-20T06:07:12;98726.09;;;11.62;100.00
19108;BME280;9686;48.832;9.126;2022-09-20T06:12:56;98731.31;;;11.83;100.00
19108;BME280;9686;48.832;9.126;2022-09-20T06:15:31;98727.84;;;11.83;100.00
19108;BME280;9686;48.832;9.126;2022-09-20T06:18:20;98724.34;;;11.82;100.00
19108;BME280;9686;48.832;9.126;2022-09-20T06:21:03;98727.81;;;11.84;100.00
19108;BME280;9686;48.832;9.126;2022-09-20T06:23:34;98723.50;;;11.79;100.00
19108;BME280;9686;48.832;9.126;2022-09-20T06:26:08;98731.31;;;11.85;100.00
19108;BME280;9686;48.832;9.126;2022-09-20T06:28:40;98733.91;;;11.86;100.00
19108;BME280;9686;48.832;9.126;2022-09-20T06:31:09;98733.91;;;11.88;100.00
19108;BME280;9686;48.832;9.126;2022-09-20T06:33:53;98736.50;;;11.95;100.00
19108;BME280;9686;48.832;9.126;2022-09-20T06:36:25;98738.22;;;11.95;100.00
19108;BME280;9686;48.832;9.126;2022-09-20T06:42:19;98732.88;;;12.34;100.00
19108;BME280;9686;48.832;9.126;2022-09-20T06:44:45;98744.16;;;12.43;100.00
19108;BME280;9686;48.832;9.126;2022-09-20T06:47:13;98742.44;;;12.39;100.00
19108;BME280;9686;48.832;9.126;2022-09-20T06:49:38;98750.22;;;12.48;100.00
19108;BME280;9686;48.832;9.126;2022-09-20T06:52:07;98750.19;;;12.57;100.00
19108;BME280;9686;48.832;9.126;2022-09-20T06:54:35;98744.00;;;12.69;100.00
19108;BME280;9686;48.832;9.126;2022-09-20T06:57:03;98746.59;;;12.78;100.00
19108;BME280;9686;48.832;9.126;2022-09-20T06:59:30;98756.19;;;12.77;100.00
19108;BME280;9686;48.832;9.126;2022-09-20T07:01:56;98755.34;;;12.75;100.00
19108;BME280;9686;48.832;9.126;2022-09-20T07:04:21;98757.00;;;12.87;100.00
19108;BME280;9686;48.832;9.126;2022-09-20T07:06:47;98755.13;;;13.00;100.00
19108;BME280;9686;48.832;9.126;2022-09-20T07:09:12;98757.75;;;13.03;100.00
19108;BME280;9686;48.832;9.126;2022-09-20T07:11:38;98751.66;;;12.99;100.00
19108;BME280;9686;48.832;9.126;2022-09-20T07:14:03;98758.72;;;12.88;100.00
19108;BME280;9686;48.832;9.126;2022-09-20T07:16:29;98757.06;;;12.78;100.00
19108;BME280;9686;48.832;9.126;2022-09-20T07:18:54;98763.94;;;12.89;100.00
19108;BME280;9686;48.832;9.126;2022-09-20T07:21:20;98761.28;;;12.94;100.00
19108;BME280;9686;48.832;9.126;2022-09-20T07:23:46;98767.31;;;13.07;100.00
19108;BME280;9686;48.832;9.126;2022-09-20T07:26:24;98765.59;;;13.04;100.00
19108;BME280;9686;48.832;9.126;2022-09-20T07:28:50;98770.81;;;13.07;100.00
19108;BME280;9686;48.832;9.126;2022-09-20T07:31:17;98768.97;;;13.23;100.00
19108;BME280;9686;48.832;9.126;2022-09-20T07:33:43;98770.69;;;13.25;100.00
19108;BME280;9686;48.832;9.126;2022-09-20T07:36:09;98776.69;;;13.40;100.00
19108;BME280;9686;48.832;9.126;2022-09-20T07:38:36;98760.09;;;13.41;100.00
19108;BME280;9686;48.832;9.126;2022-09-20T07:41:02;98762.59;;;13.53;100.00
19108;BME280;9686;48.832;9.126;2022-09-20T07:43:28;98762.53;;;13.62;100.00
19108;BME280;9686;48.832;9.126;2022-09-20T07:45:54;98764.22;;;13.68;100.00
19108;BME280;9686;48.832;9.126;2022-09-20T07:48:25;98767.84;;;13.56;100.00
19108;BME280;9686;48.832;9.126;2022-09-20T07:50:57;98769.38;;;13.80;100.00
19108;BME280;9686;48.832;9.126;2022-09-20T07:53:23;98776.34;;;13.79;100.00
19108;BME280;9686;48.832;9.126;2022-09-20T07:56:01;98773.81;;;13.70;100.00
19108;BME280;9686;48.832;9.126;2022-09-20T07:58:31;98781.72;;;13.64;100.00
19108;BME280;9686;48.832;9.126;2022-09-20T08:01:00;98778.25;;;13.64;100.00
19108;BME280;9686;48.832;9.126;2022-09-20T08:03:29;98785.34;;;13.49;100.00
19108;BME280;9686;48.832;9.126;2022-09-20T08:11:13;98783.50;;;13.61;100.00
19108;BME280;9686;48.832;9.126;2022-09-20T08:13:42;98790.44;;;13.68;100.00
19108;BME280;9686;48.832;9.126;2022-09-20T08:16:09;98789.59;;;13.63;100.00
19108;BME280;9686;48.832;9.126;2022-09-20T08:18:36;98793.13;;;13.60;100.00
19108;BME280;9686;48.832;9.126;2022-09-20T08:21:08;98793.06;;;13.66;100.00
19108;BME280;9686;48.832;9.126;2022-09-20T08:23:38;98797.31;;;13.76;100.00
19108;BME280;9686;48.832;9.126;2022-09-20T08:31:16;98803.03;;;14.18;100.00
19108;BME280;9686;48.832;9.126;2022-09-20T08:33:46;98795.16;;;14.18;100.00
19108;BME280;9686;48.832;9.126;2022-09-20T08:36:15;98801.28;;;14.18;100.00
19108;BME280;9686;48.832;9.126;2022-09-20T08:38:42;98802.06;;;14.25;100.00
19108;BME280;9686;48.832;9.126;2022-09-20T08:41:18;98795.00;;;14.33;100.00
19108;BME280;9686;48.832;9.126;2022-09-20T08:43:50;98805.72;;;14.12;100.00
19108;BME280;9686;48.832;9.126;2022-09-20T08:46:18;98796.06;;;14.15;100.00
19108;BME280;9686;48.832;9.126;2022-09-20T08:48:45;98794.13;;;14.33;100.00
19108;BME280;9686;48.832;9.126;2022-09-20T08:51:13;98793.00;;;14.54;100.00
19108;BME280;9686;48.832;9.126;2022-09-20T08:53:50;98801.00;;;14.41;100.00
19108;BME280;9686;48.832;9.126;2022-09-20T09:02:17;98779.06;;;14.52;100.00
19108;BME280;9686;48.832;9.126;2022-09-20T09:04:43;98785.34;;;14.37;100.00
19108;BME280;9686;48.832;9.126;2022-09-20T09:07:11;98791.41;;;14.42;100.00
19108;BME280;9686;48.832;9.126;2022-09-20T09:09:40;98793.25;;;14.34;100.00
19108;BME280;9686;48.832;9.126;2022-09-20T09:12:15;98794.16;;;14.31;100.00
19108;BME280;9686;48.832;9.126;2022-09-20T09:14:42;98794.34;;;14.13;100.00
19108;BME280;9686;48.832;9.126;2022-09-20T09:17:24;98797.06;;;14.04;100.00
19108;BME280;9686;48.832;9.126;2022-09-20T09:19:51;98794.47;;;14.01;100.00
19108;BME280;9686;48.832;9.126;2022-09-20T09:25:21;98779.84;;;14.60;100.00
19108;BME280;9686;48.832;9.126;2022-09-20T09:28:02;98775.19;;;14.78;100.00
19108;BME280;9686;48.832;9.126;2022-09-20T09:30:32;98776.03;;;14.84;100.00
19108;BME280;9686;48.832;9.126;2022-09-20T09:41:01;98775.88;;;14.93;100.00
19108;BME280;9686;48.832;9.126;2022-09-20T09:43:29;98781.25;;;14.85;100.00
19108;BME280;9686;48.832;9.126;2022-09-20T09:46:15;98780.38;;;14.85;92.84
19108;BME280;9686;48.832;9.126;2022-09-20T09:48:42;98780.25;;;14.92;97.35
19108;BME280;9686;48.832;9.126;2022-09-20T09:51:13;98775.78;;;14.99;97.20
19108;BME280;9686;48.832;9.126;2022-09-20T09:53:42;98776.72;;;14.95;100.00
19108;BME280;9686;48.832;9.126;2022-09-20T10:10:45;98782.31;;;15.29;98.29
19108;BME280;9686;48.832;9.126;2022-09-20T10:21:30;98772.28;;;15.54;94.50
19108;BME280;9686;48.832;9.126;2022-09-20T10:24:20;98769.31;;;15.75;90.62
19108;BME280;9686;48.832;9.126;2022-09-20T10:27:10;98780.72;;;15.76;89.29
19108;BME280;9686;48.832;9.126;2022-09-20T10:32:35;98769.53;;;15.64;83.55
19108;BME280;9686;48.832;9.126;2022-09-20T10:35:24;98770.44;;;15.62;81.96
19108;BME280;9686;48.832;9.126;2022-09-20T10:57:37;98769.94;;;15.91;87.17
19108;BME280;9686;48.832;9.126;2022-09-20T11:03:16;98771.22;;;16.15;79.09
19108;BME280;9686;48.832;9.126;2022-09-20T11:05:57;98770.16;;;16.25;78.73
19108;BME280;9686;48.832;9.126;2022-09-20T11:08:33;98765.75;;;16.25;82.31
19108;BME280;9686;48.832;9.126;2022-09-20T11:16:34;98773.00;;;16.14;70.00
19108;BME280;9686;48.832;9.126;2022-09-20T11:26:48;98776.88;;;15.95;70.34
19108;BME280;9686;48.832;9.126;2022-09-20T11:29:33;98769.31;;;16.23;80.02
19108;BME280;9686;48.832;9.126;2022-09-20T11:32:08;98769.16;;;16.30;80.03
19108;BME280;9686;48.832;9.126;2022-09-20T11:34:45;98765.34;;;16.45;76.57
19108;BME280;9686;48.832;9.126;2022-09-20T11:37:14;98751.44;;;16.80;72.88
19108;BME280;9686;48.832;9.126;2022-09-20T11:39:53;98768.38;;;16.70;80.24
19108;BME280;9686;48.832;9.126;2022-09-20T11:42:22;98766.34;;;16.81;70.68
19108;BME280;9686;48.832;9.126;2022-09-20T11:44:50;98766.25;;;16.86;65.39
19108;BME280;9686;48.832;9.126;2022-09-20T11:55:39;98768.81;;;16.47;63.22
19108;BME280;9686;48.832;9.126;2022-09-20T11:58:15;98761.88;;;16.43;67.92
19108;BME280;9686;48.832;9.126;2022-09-20T12:00:44;98759.53;;;16.29;67.23
19108;BME280;9686;48.832;9.126;2022-09-20T12:03:21;98754.25;;;16.29;67.84
19108;BME280;9686;48.832;9.126;2022-09-20T12:05:55;98754.22;;;16.74;72.10
19108;BME280;9686;48.832;9.126;2022-09-20T12:08:28;98742.38;;;16.93;68.49
19108;BME280;9686;48.832;9.126;2022-09-20T12:13:24;98731.28;;;17.16;66.66
19108;BME280;9686;48.832;9.126;2022-09-20T12:16:28;98735.72;;;17.14;60.71
19108;BME280;9686;48.832;9.126;2022-09-20T12:19:02;98739.34;;;17.10;59.77
19108;BME280;9686;48.832;9.126;2022-09-20T12:21:27;98735.09;;;17.05;62.07
19108;BME280;9686;48.832;9.126;2022-09-20T12:28:55;98731.97;;;16.87;57.28
19108;BME280;9686;48.832;9.126;2022-09-20T12:49:38;98729.66;;;17.11;50.93
19108;BME280;9686;48.832;9.126;2022-09-20T13:00:39;98716.50;;;17.46;51.81
19108;BME280;9686;48.832;9.126;2022-09-20T13:11:28;98717.78;;;16.94;52.73
19108;BME280;9686;48.832;9.126;2022-09-20T13:13:57;98718.50;;;17.01;56.17
19108;BME280;9686;48.832;9.126;2022-09-20T13:22:01;98722.59;;;16.76;56.19
19108;BME280;9686;48.832;9.126;2022-09-20T13:24:37;98717.50;;;16.68;58.68
19108;BME280;9686;48.832;9.126;2022-09-20T13:27:08;98717.50;;;16.68;57.03
19108;BME280;9686;48.832;9.126;2022-09-20T13:29:42;98719.53;;;16.54;59.55
19108;BME280;9686;48.832;9.126;2022-09-20T13:32:30;98715.03;;;16.59;60.47
19108;BME280;9686;48.832;9.126;2022-09-20T13:35:09;98715.38;;;16.44;60.52
19108;BME280;9686;48.832;9.126;2022-09-20T13:37:39;98725.78;;;16.50;61.77
19108;BME280;9686;48.832;9.126;2022-09-20T13:40:24;98719.44;;;16.58;64.47
19108;BME280;9686;48.832;9.126;2022-09-20T13:42:54;98721.91;;;16.64;68.02
19108;BME280;9686;48.832;9.126;2022-09-20T13:45:22;98723.88;;;16.56;66.79
19108;BME280;9686;48.832;9.126;2022-09-20T13:47:50;98726.63;;;16.50;69.17
19108;BME280;9686;48.832;9.126;2022-09-20T13:50:22;98727.03;;;16.32;68.43
19108;BME280;9686;48.832;9.126;2022-09-20T13:52:54;98738.28;;;16.39;66.52
19108;BME280;9686;48.832;9.126;2022-09-20T13:55:30;98736.03;;;16.20;73.39
19108;BME280;9686;48.832;9.126;2022-09-20T13:58:02;98743.19;;;16.12;76.94
19108;BME280;9686;48.832;9.126;2022-09-20T14:00:32;98740.69;;;16.06;75.15
19108;BME280;9686;48.832;9.126;2022-09-20T14:02:59;98744.56;;;15.87;76.76
19108;BME280;9686;48.832;9.126;2022-09-20T14:05:27;98747.56;;;15.68;81.98
19108;BME280;9686;48.832;9.126;2022-09-20T14:07:55;98755.56;;;15.58;85.39
19108;BME280;9686;48.832;9.126;2022-09-20T14:10:30;98745.94;;;15.61;78.19
19108;BME280;9686;48.832;9.126;2022-09-20T14:12:57;98746.25;;;15.40;85.19
19108;BME280;9686;48.832;9.126;2022-09-20T14:15:24;98748.91;;;15.38;83.46
19108;BME280;9686;48.832;9.126;2022-09-20T14:17:51;98742.84;;;15.33;81.41
19108;BME280;9686;48.832;9.126;2022-09-20T14:20:18;98738.41;;;15.38;88.24
19108;BME280;9686;48.832;9.126;2022-09-20T14:22:44;98742.69;;;15.44;89.70
19108;BME280;9686;48.832;9.126;2022-09-20T14:27:38;98737.25;;;15.53;84.25
19108;BME280;9686;48.832;9.126;2022-09-20T14:30:04;98741.56;;;15.59;81.09
19108;BME280;9686;48.832;9.126;2022-09-20T14:32:38;98738.03;;;15.60;78.78
19108;BME280;9686;48.832;9.126;2022-09-20T14:35:11;98734.56;;;15.56;77.38
19108;BME280;9686;48.832;9.126;2022-09-20T14:37:47;98730.91;;;15.68;83.94
19108;BME280;9686;48.832;9.126;2022-09-20T14:42:54;98735.59;;;15.49;82.89
19108;BME280;9686;48.832;9.126;2022-09-20T14:45:26;98728.75;;;15.39;79.15
19108;BME280;9686;48.832;9.126;2022-09-20T14:48:03;98721.59;;;15.49;87.46
19108;BME280;9686;48.832;9.126;2022-09-20T14:50:34;98724.94;;;15.57;84.93
19108;BME280;9686;48.832;9.126;2022-09-20T14:53:19;98731.91;;;15.59;80.07
19108;BME280;9686;48.832;9.126;2022-09-20T14:58:29;98725.88;;;16.02;69.80
19108;BME280;9686;48.832;9.126;2022-09-20T15:01:22;98734.78;;;15.95;70.44
19108;BME280;9686;48.832;9.126;2022-09-20T15:03:48;98726.09;;;15.91;66.22
19108;BME280;9686;48.832;9.126;2022-09-20T15:06:14;98725.91;;;16.00;66.79
19108;BME280;9686;48.832;9.126;2022-09-20T15:08:40;98737.16;;;16.07;69.76
19108;BME280;9686;48.832;9.126;2022-09-20T15:11:05;98725.38;;;16.26;62.60
19108;BME280;9686;48.832;9.126;2022-09-20T15:13:31;98729.50;;;16.40;62.34
19108;BME280;9686;48.832;9.126;2022-09-20T15:15:57;98725.69;;;16.53;61.72
19108;BME280;9686;48.832;9.126;2022-09-20T15:18:25;98732.81;;;16.49;61.10
19108;BME280;9686;48.832;9.126;2022-09-20T15:20:52;98718.56;;;16.58;63.81
19108;BME280;9686;48.832;9.126;2022-09-20T15:23:18;98727.41;;;16.55;67.85
19108;BME280;9686;48.832;9.126;2022-09-20T15:25:44;98734.19;;;17.06;65.27
19108;BME280;9686;48.832;9.126;2022-09-20T15:28:14;98720.38;;;19.70;51.47
19108;BME280;9686;48.832;9.126;2022-09-20T15:30:47;98725.94;;;17.89;55.88
19108;BME280;9686;48.832;9.126;2022-09-20T15:33:13;98720.88;;;17.47;59.27
19108;BME280;9686;48.832;9.126;2022-09-20T15:35:40;98722.34;;;17.57;56.03
19108;BME280;9686;48.832;9.126;2022-09-20T15:38:06;98720.81;;;18.45;50.32
19108;BME280;9686;48.832;9.126;2022-09-20T15:40:34;98715.28;;;19.38;47.22
19108;BME280;9686;48.832;9.126;2022-09-20T15:43:00;98719.75;;;18.82;46.74
19108;BME280;9686;48.832;9.126;2022-09-20T15:45:26;98721.78;;;19.01;45.87
19108;BME280;9686;48.832;9.126;2022-09-20T15:47:53;98716.63;;;18.97;45.78
19108;BME280;9686;48.832;9.126;2022-09-20T15:50:22;98716.84;;;18.32;49.55
19108;BME280;9686;48.832;9.126;2022-09-20T15:52:48;98717.03;;;17.93;50.85
19108;BME280;9686;48.832;9.126;2022-09-20T15:55:18;98714.91;;;17.39;49.77
19108;BME280;9686;48.832;9.126;2022-09-20T15:57:43;98719.69;;;17.25;51.84
19108;BME280;9686;48.832;9.126;2022-09-20T16:00:09;98716.00;;;16.95;55.74
19108;BME280;9686;48.832;9.126;2022-09-20T16:02:35;98717.19;;;16.82;57.76
19108;BME280;9686;48.832;9.126;2022-09-20T16:05:01;98716.94;;;16.52;61.20
19108;BME280;9686;48.832;9.126;2022-09-20T16:07:26;98721.22;;;16.56;57.12
19108;BME280;9686;48.832;9.126;2022-09-20T16:09:53;98719.84;;;16.40;60.53
19108;BME280;9686;48.832;9.126;2022-09-20T16:12:20;98723.44;;;16.34;60.99
19108;BME280;9686;48.832;9.126;2022-09-20T16:20:15;98719.03;;;15.93;66.44
19108;BME280;9686;48.832;9.126;2022-09-20T16:22:46;98727.09;;;15.84;71.10
19108;BME280;9686;48.832;9.126;2022-09-20T17:27:13;98776.13;;;14.74;100.00
19108;BME280;9686;48.832;9.126;2022-09-20T17:29:38;98777.88;;;14.74;100.00
19108;BME280;9686;48.832;9.126;2022-09-20T17:32:04;98779.69;;;14.70;100.00
19108;BME280;9686;48.832;9.126;2022-09-20T17:34:29;98784.97;;;14.67;100.00
19108;BME280;9686;48.832;9.126;2022-09-20T17:36:55;98780.63;;;14.66;100.00
19108;BME280;9686;48.832;9.126;2022-09-20T17:39:21;98786.66;;;14.73;100.00
19108;BME280;9686;48.832;9.126;2022-09-20T17:41:48;98787.56;;;14.70;100.00
19108;BME280;9686;48.832;9.126;2022-09-20T17:44:14;98789.28;;;14.73;100.00
19108;BME280;9686;48.832;9.126;2022-09-20T17:46:41;98791.16;;;14.65;100.00
19108;BME280;9686;48.832;9.126;2022-09-20T17:49:12;98788.47;;;14.68;100.00
19108;BME280;9686;48.832;9.126;2022-09-20T17:51:43;98798.25;;;14.54;100.00
19108;BME280;9686;48.832;9.126;2022-09-20T17:54:09;98797.47;;;14.47;100.00
19108;BME280;9686;48.832;9.126;2022-09-20T17:56:42;98803.63;;;14.41;100.00
19108;BME280;9686;48.832;9.126;2022-09-20T17:59:08;98801.94;;;14.37;100.00
19108;BME280;9686;48.832;9.126;2022-09-20T18:01:35;98806.38;;;14.31;100.00
19108;BME280;9686;48.832;9.126;2022-09-20T18:04:03;98807.34;;;14.22;100.00
19108;BME280;9686;48.832;9.126;2022-09-20T18:06:36;98806.56;;;14.14;100.00
19108;BME280;9686;48.832;9.126;2022-09-20T18:09:04;98813.47;;;14.21;100.00
19108;BME280;9686;48.832;9.126;2022-09-20T18:11:33;98823.22;;;14.10;100.00
19108;BME280;9686;48.832;9.126;2022-09-20T18:13:59;98819.84;;;13.97;100.00
19108;BME280;9686;48.832;9.126;2022-09-20T18:16:57;98826.91;;;13.89;100.00
19108;BME280;9686;48.832;9.126;2022-09-20T18:19:25;98831.31;;;13.87;100.00
19108;BME280;9686;48.832;9.126;2022-09-20T18:25:17;98835.88;;;13.65;100.00
19108;BME280;9686;48.832;9.126;2022-09-20T18:27:43;98842.00;;;13.63;100.00
19108;BME280;9686;48.832;9.126;2022-09-20T18:30:08;98831.59;;;13.55;100.00
19108;BME280;9686;48.832;9.126;2022-09-20T18:32:34;98847.38;;;13.43;100.00
19108;BME280;9686;48.832;9.126;2022-09-20T18:34:59;98848.38;;;13.28;100.00
19108;BME280;9686;48.832;9.126;2022-09-20T18:37:24;98844.91;;;13.20;100.00
19108;BME280;9686;48.832;9.126;2022-09-20T18:39:50;98855.34;;;13.26;100.00
19108;BME280;9686;48.832;9.126;2022-09-20T18:42:15;98851.03;;;13.14;100.00
19108;BME280;9686;48.832;9.126;2022-09-20T18:44:40;98857.22;;;13.01;100.00
19108;BME280;9686;48.832;9.126;2022-09-20T18:47:08;98850.22;;;13.06;100.00
19108;BME280;9686;48.832;9.126;2022-09-20T18:49:34;98861.66;;;12.85;100.00
19108;BME280;9686;48.832;9.126;2022-09-20T18:52:00;98862.56;;;12.80;100.00
19108;BME280;9686;48.832;9.126;2022-09-20T18:54:25;98865.19;;;12.81;100.00
19108;BME280;9686;48.832;9.126;2022-09-20T18:56:54;98870.41;;;12.83;100.00
19108;BME280;9686;48.832;9.126;2022-09-20T18:59:22;98866.94;;;12.70;100.00
19108;BME280;9686;48.832;9.126;2022-09-20T19:12:41;98896.63;;;12.61;100.00
19108;BME280;9686;48.832;9.126;2022-09-20T19:15:47;98887.06;;;12.48;100.00
19108;BME280;9686;48.832;9.126;2022-09-20T19:18:29;98895.72;;;12.70;100.00
19108;BME280;9686;48.832;9.126;2022-09-20T19:26:25;98909.78;;;12.37;100.00
19108;BME280;9686;48.832;9.126;2022-09-20T19:28:53;98911.50;;;12.37;100.00
19108;BME280;9686;48.832;9.126;2022-09-20T19:31:29;98911.47;;;12.46;100.00
19108;BME280;9686;48.832;9.126;2022-09-20T19:33:58;98913.25;;;12.44;100.00
19108;BME280;9686;48.832;9.126;2022-09-20T19:36:30;98910.63;;;12.45;100.00
19108;BME280;9686;48.832;9.126;2022-09-20T19:39:13;98917.63;;;12.31;100.00
19108;BME280;9686;48.832;9.126;2022-09-20T19:42:14;98918.50;;;12.33;100.00
19108;BME280;9686;48.832;9.126;2022-09-20T19:52:41;98922.00;;;12.26;100.00
19108;BME280;9686;48.832;9.126;2022-09-20T19:55:10;98925.50;;;12.10;100.00
19108;BME280;9686;48.832;9.126;2022-09-20T19:57:44;98926.38;;;12.06;100.00
19108;BME280;9686;48.832;9.126;2022-09-20T20:00:12;98925.47;;;12.14;100.00
19108;BME280;9686;48.832;9.126;2022-09-20T20:02:40;98921.13;;;12.19;100.00
19108;BME280;9686;48.832;9.126;2022-09-20T20:05:06;98926.38;;;12.24;100.00
19108;BME280;9686;48.832;9.126;2022-09-20T20:12:54;98921.16;;;11.99;100.00
19108;BME280;9686;48.832;9.126;2022-09-20T20:21:14;98928.13;;;12.03;100.00
19108;BME280;9686;48.832;9.126;2022-09-20T20:26:25;98938.56;;;11.88;100.00
19108;BME280;9686;48.832;9.126;2022-09-20T20:28:51;98936.81;;;12.01;100.00
19108;BME280;9686;48.832;9.126;2022-09-20T20:31:20;98935.94;;;11.94;100.00
19108;BME280;9686;48.832;9.126;2022-09-20T20:33:45;98942.91;;;11.92;100.00
19108;BME280;9686;48.832;9.126;2022-09-20T20:36:10;98944.63;;;11.73;100.00
19108;BME280;9686;48.832;9.126;2022-09-20T20:38:37;98943.75;;;11.71;100.00
19108;BME280;9686;48.832;9.126;2022-09-20T20:41:07;98944.63;;;11.73;100.00
19108;BME280;9686;48.832;9.126;2022-09-20T20:43:35;98942.84;;;11.57;100.00
19108;BME280;9686;48.832;9.126;2022-09-20T20:46:06;98949.81;;;11.60;100.00
19108;BME280;9686;48.832;9.126;2022-09-20T20:48:32;98951.53;;;11.49;100.00
19108;BME280;9686;48.832;9.126;2022-09-20T20:50:58;98951.53;;;11.52;100.00
19108;BME280;9686;48.832;9.126;2022-09-20T20:53:24;98948.94;;;11.52;100.00
19108;BME280;9686;48.832;9.126;2022-09-20T20:56:04;98940.19;;;11.43;100.00
19108;BME280;9686;48.832;9.126;2022-09-20T20:58:32;98940.22;;;11.56;100.00
19108;BME280;9686;48.832;9.126;2022-09-20T21:01:13;98945.41;;;11.42;100.00
19108;BME280;9686;48.832;9.126;2022-09-20T21:03:40;98945.41;;;11.42;100.00
19108;BME280;9686;48.832;9.126;2022-09-20T21:06:08;98939.34;;;11.46;100.00
19108;BME280;9686;48.832;9.126;2022-09-20T21:08:36;98946.31;;;11.53;100.00
19108;BME280;9686;48.832;9.126;2022-09-20T21:11:04;98939.38;;;11.61;100.00
19108;BME280;9686;48.832;9.126;2022-09-20T21:13:30;98950.66;;;11.47;100.00
19108;BME280;9686;48.832;9.126;2022-09-20T21:16:06;98955.03;;;11.48;100.00
19108;BME280;9686;48.832;9.126;2022-09-20T21:18:33;98948.00;;;11.33;100.00
19108;BME280;9686;48.832;9.126;2022-09-20T21:20:59;98948.00;;;11.40;100.00
19108;BME280;9686;48.832;9.126;2022-09-20T21:23:26;98951.47;;;11.26;100.00
19108;BME280;9686;48.832;9.126;2022-09-20T21:26:05;98945.38;;;11.27;100.00
19108;BME280;9686;48.832;9.126;2022-09-20T21:28:36;98944.53;;;11.37;100.00
19108;BME280;9686;48.832;9.126;2022-09-20T21:31:03;98948.00;;;11.36;100.00
19108;BME280;9686;48.832;9.126;2022-09-20T21:33:31;98938.44;;;11.29;100.00
19108;BME280;9686;48.832;9.126;2022-09-20T21:38:38;98942.72;;;11.10;100.00
19108;BME280;9686;48.832;9.126;2022-09-20T21:43:31;98947.84;;;10.92;100.00
19108;BME280;9686;48.832;9.126;2022-09-20T21:45:57;98951.41;;;11.09;100.00
19108;BME280;9686;48.832;9.126;2022-09-20T21:48:23;98956.63;;;11.10;100.00
19108;BME280;9686;48.832;9.126;2022-09-20T21:50:50;98953.97;;;10.98;100.00
19108;BME280;9686;48.832;9.126;2022-09-20T21:53:16;98956.53;;;10.92;100.00
19108;BME280;9686;48.832;9.126;2022-09-20T21:55:42;98952.19;;;10.90;100.00
19108;BME280;9686;48.832;9.126;2022-09-20T21:58:07;98948.69;;;10.83;100.00
19108;BME280;9686;48.832;9.126;2022-09-20T22:00:33;98957.38;;;10.85;100.00
19108;BME280;9686;48.832;9.126;2022-09-20T22:02:59;98965.28;;;10.96;100.00
19108;BME280;9686;48.832;9.126;2022-09-20T22:05:25;98961.72;;;10.83;100.00
19108;BME280;9686;48.832;9.126;2022-09-20T22:07:53;98960.81;;;10.76;100.00
19108;BME280;9686;48.832;9.126;2022-09-20T22:10:20;98955.59;;;10.70;100.00
19108;BME280;9686;48.832;9.126;2022-09-20T22:12:46;98953.78;;;10.60;100.00
19108;BME280;9686;48.832;9.126;2022-09-20T22:15:12;98952.00;;;10.56;100.00
19108;BME280;9686;48.832;9.126;2022-09-20T22:17:38;98947.69;;;10.61;100.00
19108;BME280;9686;48.832;9.126;2022-09-20T22:20:04;98949.41;;;10.58;100.00
19108;BME280;9686;48.832;9.126;2022-09-20T22:22:29;98945.91;;;10.48;100.00
19108;BME280;9686;48.832;9.126;2022-09-20T22:29:57;98949.38;;;10.50;100.00
19108;BME280;9686;48.832;9.126;2022-09-20T22:32:22;98944.13;;;10.44;100.00
19108;BME280;9686;48.832;9.126;2022-09-20T22:34:48;98941.53;;;10.44;100.00
19108;BME280;9686;48.832;9.126;2022-09-20T22:37:13;98934.44;;;10.26;100.00
19108;BME280;9686;48.832;9.126;2022-09-20T22:39:38;98935.28;;;10.22;100.00
19108;BME280;9686;48.832;9.126;2022-09-20T22:42:04;98944.88;;;10.25;100.00